RYR84AM LHBP-LIRP
Flight info
| Callsign | RYR84AM |
|---|---|
| Flight time | N/A |
| Altitude | 36000 |
| Route | GILEP DCT ZOLKU DCT SUNIS DCT INSAX DCT GOLVA DCT PUL DCT BAXON/N0462F350 DCT GAVRA DCT IBRID DCT KUGIX DCT GINAR L12 MAREL |
| Aircraft | B738/M-SDE2E3FGHIRWXY/LB1 |
Departure
| Time | N/A |
|---|---|
| Airport | Budapest Liszt Ferenc International Airport (LHBP) |
Arrival
| Time | 2026-05-08 15:21 |
|---|---|
| Airport | Pisa International Airport (LIRP) |
| Time | Latitude | Longitude | Altitude | Speed | Heading |
|---|---|---|---|---|---|
| 2026-05-08 15:09 | 43.28108 | 10.36237 | 8276 ft | 285 kts | 270° |
| 2026-05-08 15:10 | 43.28098 | 10.33472 | 7912 ft | 287 kts | 270° |
| 2026-05-08 15:10 | 43.28087 | 10.30787 | 7664 ft | 283 kts | 270° |
| 2026-05-08 15:10 | 43.28074 | 10.28081 | 7312 ft | 284 kts | 270° |
| 2026-05-08 15:10 | 43.28061 | 10.25365 | 6992 ft | 284 kts | 270° |
| 2026-05-08 15:11 | 43.28048 | 10.22653 | 6710 ft | 283 kts | 270° |
| 2026-05-08 15:11 | 43.28033 | 10.19954 | 6423 ft | 283 kts | 270° |
| 2026-05-08 15:11 | 43.28018 | 10.17271 | 6128 ft | 281 kts | 270° |
| 2026-05-08 15:11 | 43.28003 | 10.14618 | 5824 ft | 281 kts | 270° |
| 2026-05-08 15:12 | 43.27991 | 10.12814 | 5620 ft | 280 kts | 270° |
| 2026-05-08 15:12 | 43.27971 | 10.09286 | 5207 ft | 279 kts | 272° |
| 2026-05-08 15:12 | 43.28380 | 10.06726 | 4793 ft | 274 kts | 299° |
| 2026-05-08 15:12 | 43.29574 | 10.04780 | 4417 ft | 264 kts | 327° |
| 2026-05-08 15:13 | 43.31217 | 10.03810 | 4036 ft | 255 kts | 353° |
| 2026-05-08 15:13 | 43.32949 | 10.03915 | 3656 ft | 248 kts | 21° |
| 2026-05-08 15:13 | 43.33977 | 10.04581 | 3563 ft | 246 kts | 29° |
| 2026-05-08 15:13 | 43.36018 | 10.06176 | 3531 ft | 254 kts | 33° |
| 2026-05-08 15:14 | 43.37453 | 10.07511 | 3501 ft | 251 kts | 37° |
| 2026-05-08 15:14 | 43.38844 | 10.08911 | 3485 ft | 246 kts | 38° |
| 2026-05-08 15:14 | 43.40204 | 10.10315 | 3486 ft | 242 kts | 38° |
| 2026-05-08 15:14 | 43.41111 | 10.11255 | 3490 ft | 241 kts | 38° |
| 2026-05-08 15:15 | 43.42903 | 10.13112 | 3513 ft | 246 kts | 38° |
| 2026-05-08 15:15 | 43.43813 | 10.14054 | 3509 ft | 248 kts | 38° |
| 2026-05-08 15:15 | 43.45652 | 10.15956 | 3491 ft | 246 kts | 38° |
| 2026-05-08 15:15 | 43.47014 | 10.17364 | 3504 ft | 244 kts | 38° |
| 2026-05-08 15:16 | 43.48351 | 10.18746 | 3505 ft | 243 kts | 38° |
| 2026-05-08 15:16 | 43.49703 | 10.20144 | 3488 ft | 243 kts | 38° |
| 2026-05-08 15:16 | 43.50615 | 10.21087 | 3499 ft | 242 kts | 38° |
| 2026-05-08 15:16 | 43.51972 | 10.22489 | 3507 ft | 245 kts | 38° |
| 2026-05-08 15:17 | 43.53330 | 10.23893 | 3447 ft | 252 kts | 38° |
| 2026-05-08 15:17 | 43.54756 | 10.25367 | 3103 ft | 256 kts | 38° |
| 2026-05-08 15:17 | 43.56162 | 10.26819 | 2765 ft | 250 kts | 38° |
| 2026-05-08 15:17 | 43.57539 | 10.28241 | 2464 ft | 243 kts | 38° |
| 2026-05-08 15:18 | 43.58852 | 10.29597 | 2134 ft | 228 kts | 38° |
| 2026-05-08 15:18 | 43.60079 | 10.30866 | 1811 ft | 212 kts | 38° |
| 2026-05-08 15:18 | 43.61202 | 10.32026 | 1549 ft | 194 kts | 37° |
| 2026-05-08 15:18 | 43.62230 | 10.33083 | 1322 ft | 176 kts | 37° |
| 2026-05-08 15:19 | 43.63162 | 10.34044 | 1146 ft | 160 kts | 37° |
| 2026-05-08 15:19 | 43.64022 | 10.34934 | 937 ft | 149 kts | 36° |
| 2026-05-08 15:19 | 43.64874 | 10.35819 | 676 ft | 155 kts | 36° |
| 2026-05-08 15:19 | 43.65729 | 10.36692 | 479 ft | 152 kts | 34° |
| 2026-05-08 15:20 | 43.66564 | 10.37553 | 271 ft | 147 kts | 34° |
| 2026-05-08 15:20 | 43.67634 | 10.38657 | 20 ft | 143 kts | 34° |
| 2026-05-08 15:20 | 43.68137 | 10.39172 | 6 ft | 117 kts | 38° |
| 2026-05-08 15:20 | 43.68626 | 10.39678 | 8 ft | 75 kts | 37° |
| 2026-05-08 15:21 | 43.68991 | 10.40056 | 7 ft | 53 kts | 37° |
| 2026-05-08 15:21 | 43.69226 | 10.40299 | 9 ft | 23 kts | 31° |
| 2026-05-08 15:21 | 43.69307 | 10.40245 | 9 ft | 13 kts | 306° |
| 2026-05-08 15:21 | 43.69360 | 10.40146 | 9 ft | 13 kts | 306° |
| 2026-05-08 15:22 | 43.69436 | 10.40096 | 10 ft | 12 kts | 352° |
| 2026-05-08 15:22 | 43.69520 | 10.40080 | 12 ft | 12 kts | 352° |
| 2026-05-08 15:22 | 43.69603 | 10.40064 | 10 ft | 12 kts | 351° |
| 2026-05-08 15:22 | 43.69676 | 10.40036 | 12 ft | 10 kts | 328° |
| 2026-05-08 15:23 | 43.69719 | 10.40026 | 10 ft | 5 kts | 11° |
| 2026-05-08 15:23 | 43.69745 | 10.40032 | 10 ft | 2 kts | 9° |
| 2026-05-08 15:23 | 43.69747 | 10.40032 | 10 ft | 0 kts | 9° |